Time;durP1;ratioP1;P1;durP2;ratioP2;P2;SDS_P1;SDS_P2;PMS_P1;PMS_P2;Temp;Humidity;BMP_temperature;BMP_pressure;BME280_temperature;BME280_humidity;BME280_pressure;Samples;Min_cycle;Max_cycle;Signal;HPM_P1;HPM_P2
2021/09/20 00:01:38;;;;;;;10.50;7.20;;;;;;;;;;5070917;28;20840;-46
2021/09/20 00:04:04;;;;;;;7.97;6.77;;;;;;;;;;5071338;28;20407;-46
2021/09/20 00:06:30;;;;;;;7.40;6.70;;;;;;;;;;5071337;28;20424;-45
2021/09/20 00:08:56;;;;;;;9.07;6.47;;;;;;;;;;5071232;28;20495;-45
2021/09/20 00:11:22;;;;;;;8.37;7.07;;;;;;;;;;5070993;28;20425;-45
2021/09/20 00:13:48;;;;;;;9.73;7.10;;;;;;;;;;5071293;28;20404;-46
2021/09/20 00:16:14;;;;;;;13.00;7.37;;;;;;;;;;5071103;28;20492;-45
2021/09/20 00:18:40;;;;;;;7.93;7.03;;;;;;;;;;5071074;28;20918;-46
2021/09/20 00:21:06;;;;;;;9.60;6.70;;;;;;;;;;5071113;28;20397;-47
2021/09/20 00:23:32;;;;;;;8.63;7.17;;;;;;;;;;5071001;28;20408;-45
2021/09/20 00:25:59;;;;;;;8.37;6.80;;;;;;;;;;5073263;28;20516;-45
2021/09/20 00:28:25;;;;;;;9.17;8.03;;;;;;;;;;5074648;28;20860;-46
2021/09/20 00:30:51;;;;;;;8.23;7.10;;;;;;;;;;5074572;28;20462;-47
2021/09/20 00:33:17;;;;;;;9.90;6.73;;;;;;;;;;5074468;28;20405;-46
2021/09/20 00:35:43;;;;;;;9.80;7.43;;;;;;;;;;5074805;28;20439;-47
2021/09/20 00:38:09;;;;;;;7.27;6.53;;;;;;;;;;5074547;28;20437;-45
2021/09/20 00:40:35;;;;;;;8.57;7.50;;;;;;;;;;5074452;28;20414;-46
2021/09/20 00:43:01;;;;;;;8.47;7.23;;;;;;;;;;5074310;28;20885;-44
2021/09/20 00:45:27;;;;;;;11.03;7.30;;;;;;;;;;5074317;28;20419;-45
2021/09/20 00:47:53;;;;;;;10.13;7.90;;;;;;;;;;5074472;28;20443;-45
2021/09/20 00:50:19;;;;;;;11.77;8.53;;;;;;;;;;5074550;28;20407;-46
2021/09/20 00:52:45;;;;;;;11.63;8.27;;;;;;;;;;5074060;28;20392;-45
2021/09/20 00:55:12;;;;;;;11.53;7.37;;;;;;;;;;5074273;28;20887;-45
2021/09/20 00:57:40;;;;;;;10.73;7.67;;;;;;;;;;5074143;28;20421;-45
2021/09/20 01:00:06;;;;;;;11.03;7.40;;;;;;;;;;5074083;28;20606;-46
2021/09/20 01:02:32;;;;;;;9.70;7.70;;;;;;;;;;5073124;28;20415;-45
2021/09/20 01:04:58;;;;;;;10.50;8.33;;;;;;;;;;5073769;28;20499;-45
2021/09/20 01:07:24;;;;;;;8.70;7.10;;;;;;;;;;5073564;28;20953;-45
2021/09/20 01:09:50;;;;;;;9.33;7.40;;;;;;;;;;5073936;28;20833;-46
2021/09/20 01:12:16;;;;;;;8.93;7.50;;;;;;;;;;5073665;28;20388;-45
2021/09/20 01:14:42;;;;;;;11.60;7.97;;;;;;;;;;5073734;28;20393;-46
2021/09/20 01:17:09;;;;;;;17.60;9.10;;;;;;;;;;5073679;28;20439;-46
2021/09/20 01:19:35;;;;;;;9.20;8.10;;;;;;;;;;5073794;28;20489;-46
2021/09/20 01:22:04;;;;;;;9.93;7.87;;;;;;;;;;5073448;28;20490;-46
2021/09/20 01:24:30;;;;;;;10.47;8.13;;;;;;;;;;5073706;28;20912;-46
2021/09/20 01:27:00;;;;;;;8.00;7.17;;;;;;;;;;5073452;28;20912;-47
2021/09/20 01:29:26;;;;;;;11.83;8.37;;;;;;;;;;5073574;28;20540;-45
2021/09/20 01:31:52;;;;;;;10.43;7.63;;;;;;;;;;5073323;28;20900;-45
2021/09/20 01:34:18;;;;;;;11.13;8.30;;;;;;;;;;5073478;28;20412;-45
2021/09/20 01:36:46;;;;;;;9.87;8.37;;;;;;;;;;5073380;28;20417;-45
2021/09/20 01:39:16;;;;;;;12.23;8.33;;;;;;;;;;5073345;28;20453;-46
2021/09/20 01:41:42;;;;;;;12.43;8.40;;;;;;;;;;5073028;28;20405;-46
2021/09/20 01:44:08;;;;;;;9.97;7.80;;;;;;;;;;5073240;28;20747;-46
2021/09/20 01:46:34;;;;;;;13.40;7.63;;;;;;;;;;5073210;28;20512;-46
2021/09/20 01:49:01;;;;;;;9.83;8.37;;;;;;;;;;5073103;28;20555;-46
2021/09/20 01:51:27;;;;;;;8.57;7.63;;;;;;;;;;5072937;28;20406;-45
2021/09/20 01:53:53;;;;;;;8.20;7.40;;;;;;;;;;5073000;28;20869;-46
2021/09/20 01:56:19;;;;;;;11.70;8.87;;;;;;;;;;5072979;28;20512;-46
2021/09/20 01:58:45;;;;;;;11.30;8.93;;;;;;;;;;5073014;28;20474;-46
2021/09/20 02:01:11;;;;;;;18.23;8.30;;;;;;;;;;5072876;28;20887;-46
2021/09/20 02:03:37;;;;;;;11.80;8.40;;;;;;;;;;5072823;28;20409;-48
2021/09/20 02:06:03;;;;;;;11.50;8.90;;;;;;;;;;5072834;28;20531;-45
2021/09/20 02:08:29;;;;;;;10.80;8.40;;;;;;;;;;5072746;28;20546;-45
2021/09/20 02:10:55;;;;;;;12.53;7.97;;;;;;;;;;5072633;28;20476;-45
2021/09/20 02:13:21;;;;;;;8.50;6.70;;;;;;;;;;5072544;28;20403;-45
2021/09/20 02:15:47;;;;;;;12.50;7.90;;;;;;;;;;5072648;28;20418;-45
2021/09/20 02:18:13;;;;;;;12.10;8.27;;;;;;;;;;5072587;28;20569;-46
2021/09/20 02:20:38;;;;;;;11.33;8.40;;;;;;;;;;5072590;28;20396;-45
2021/09/20 02:23:04;;;;;;;9.17;7.93;;;;;;;;;;5072251;28;20443;-46
2021/09/20 02:25:30;;;;;;;9.83;7.97;;;;;;;;;;5072343;28;20400;-46
2021/09/20 02:27:56;;;;;;;12.17;9.10;;;;;;;;;;5072363;28;20578;-49
2021/09/20 02:30:22;;;;;;;14.67;9.73;;;;;;;;;;5072354;28;20405;-45
2021/09/20 02:32:48;;;;;;;11.50;8.07;;;;;;;;;;5072152;28;20896;-45
2021/09/20 02:35:14;;;;;;;9.00;8.07;;;;;;;;;;5072305;28;20397;-45
2021/09/20 02:37:41;;;;;;;10.23;8.23;;;;;;;;;;5072165;28;20831;-46
2021/09/20 02:40:08;;;;;;;11.23;8.87;;;;;;;;;;5072318;28;20791;-45
2021/09/20 02:42:34;;;;;;;10.87;7.40;;;;;;;;;;5071986;28;20958;-45
2021/09/20 02:45:00;;;;;;;9.30;7.70;;;;;;;;;;5072226;28;20410;-46
2021/09/20 02:47:26;;;;;;;10.37;7.87;;;;;;;;;;5071648;28;21031;-45
2021/09/20 02:49:53;;;;;;;9.70;7.87;;;;;;;;;;5072459;28;20761;-45
2021/09/20 02:52:19;;;;;;;12.90;7.60;;;;;;;;;;5071916;28;20405;-45
2021/09/20 02:54:45;;;;;;;10.83;7.90;;;;;;;;;;5071999;28;20408;-45
2021/09/20 02:57:11;;;;;;;8.63;7.37;;;;;;;;;;5071946;28;20420;-45
2021/09/20 02:59:37;;;;;;;9.73;7.93;;;;;;;;;;5071989;28;20405;-46
2021/09/20 03:02:03;;;;;;;11.97;8.10;;;;;;;;;;5071694;28;20483;-47
2021/09/20 03:04:29;;;;;;;9.17;8.17;;;;;;;;;;5071968;28;20836;-45
2021/09/20 03:06:55;;;;;;;9.27;7.67;;;;;;;;;;5071877;28;20417;-47
2021/09/20 03:09:20;;;;;;;8.57;6.97;;;;;;;;;;5071748;28;20951;-45
2021/09/20 03:11:46;;;;;;;11.33;7.90;;;;;;;;;;5071581;28;20760;-46
2021/09/20 03:14:12;;;;;;;9.63;8.17;;;;;;;;;;5071804;28;20404;-45
2021/09/20 03:16:38;;;;;;;11.23;9.27;;;;;;;;;;5071651;28;20490;-46
2021/09/20 03:19:04;;;;;;;9.30;7.70;;;;;;;;;;5071834;28;20400;-46
2021/09/20 03:21:30;;;;;;;11.47;7.90;;;;;;;;;;5071447;28;20405;-46
2021/09/20 03:23:56;;;;;;;10.93;8.60;;;;;;;;;;5071704;28;20405;-45
2021/09/20 03:26:22;;;;;;;9.87;8.13;;;;;;;;;;5071605;28;20506;-47
2021/09/20 03:28:48;;;;;;;13.10;8.27;;;;;;;;;;5071599;28;20872;-47
2021/09/20 03:31:14;;;;;;;10.97;7.33;;;;;;;;;;5071568;28;20408;-45
2021/09/20 03:33:40;;;;;;;10.20;8.17;;;;;;;;;;5071500;28;20389;-45
2021/09/20 03:36:06;;;;;;;10.70;8.00;;;;;;;;;;5071461;28;20423;-45
2021/09/20 03:38:32;;;;;;;13.10;8.90;;;;;;;;;;5071615;28;20401;-45
2021/09/20 03:40:58;;;;;;;9.53;7.53;;;;;;;;;;5071529;28;20954;-45
2021/09/20 03:43:24;;;;;;;10.80;8.67;;;;;;;;;;5071308;28;20483;-45
2021/09/20 03:45:50;;;;;;;9.80;7.33;;;;;;;;;;5071586;28;20771;-46
2021/09/20 03:48:16;;;;;;;9.83;8.13;;;;;;;;;;5071458;28;20453;-45
2021/09/20 03:50:42;;;;;;;8.67;7.40;;;;;;;;;;5070134;28;20413;-46
2021/09/20 03:53:08;;;;;;;9.30;7.70;;;;;;;;;;5071178;28;20408;-47
2021/09/20 03:55:34;;;;;;;8.97;7.90;;;;;;;;;;5071402;28;20403;-45
2021/09/20 03:58:00;;;;;;;12.30;9.00;;;;;;;;;;5071444;28;20486;-45
2021/09/20 04:00:26;;;;;;;14.90;8.43;;;;;;;;;;5072913;28;20465;-45
2021/09/20 04:02:52;;;;;;;9.37;7.50;;;;;;;;;;5075022;28;20457;-45
2021/09/20 04:05:18;;;;;;;11.93;9.47;;;;;;;;;;5075121;28;20814;-46
2021/09/20 04:07:44;;;;;;;9.87;7.60;;;;;;;;;;5075004;28;20459;-46
2021/09/20 04:10:10;;;;;;;10.53;9.30;;;;;;;;;;5075312;28;20397;-45
2021/09/20 04:12:36;;;;;;;10.60;8.13;;;;;;;;;;5074843;28;20410;-45
2021/09/20 04:15:02;;;;;;;10.70;7.80;;;;;;;;;;5075023;28;20483;-45
2021/09/20 04:17:28;;;;;;;10.90;8.60;;;;;;;;;;5074766;28;20440;-45
2021/09/20 04:19:54;;;;;;;10.43;7.40;;;;;;;;;;5074756;28;20752;-45
2021/09/20 04:22:20;;;;;;;8.57;7.67;;;;;;;;;;5074819;28;20771;-46
2021/09/20 04:24:46;;;;;;;9.87;8.50;;;;;;;;;;5074822;28;20400;-45
2021/09/20 04:27:12;;;;;;;9.00;8.00;;;;;;;;;;5074640;28;20846;-46
2021/09/20 04:29:38;;;;;;;10.90;8.77;;;;;;;;;;5074751;28;20393;-47
2021/09/20 04:32:04;;;;;;;9.23;7.50;;;;;;;;;;5074421;28;20397;-45
2021/09/20 04:34:30;;;;;;;9.80;7.80;;;;;;;;;;5074548;28;20393;-45
2021/09/20 04:36:56;;;;;;;13.67;8.80;;;;;;;;;;5074550;28;20597;-46
2021/09/20 04:39:22;;;;;;;12.73;9.40;;;;;;;;;;5074572;28;20488;-45
2021/09/20 04:41:48;;;;;;;9.20;7.50;;;;;;;;;;5074296;28;20523;-46
2021/09/20 04:44:14;;;;;;;11.77;9.50;;;;;;;;;;5074517;28;20408;-45
2021/09/20 04:46:40;;;;;;;12.20;8.03;;;;;;;;;;5074425;28;20425;-46
2021/09/20 04:49:06;;;;;;;9.83;7.90;;;;;;;;;;5074276;28;20492;-46
2021/09/20 04:51:32;;;;;;;14.03;8.40;;;;;;;;;;5074278;28;20436;-45
2021/09/20 04:53:58;;;;;;;8.30;7.13;;;;;;;;;;5074114;28;20897;-46
2021/09/20 04:56:24;;;;;;;10.77;8.47;;;;;;;;;;5074199;28;20417;-45
2021/09/20 04:58:51;;;;;;;8.97;7.70;;;;;;;;;;5074224;28;20402;-45
2021/09/20 05:01:17;;;;;;;10.87;8.60;;;;;;;;;;5074152;28;20960;-46
2021/09/20 05:03:43;;;;;;;9.33;8.40;;;;;;;;;;5073910;28;20481;-45
2021/09/20 05:06:09;;;;;;;10.67;8.87;;;;;;;;;;5073996;28;20417;-46
2021/09/20 05:08:35;;;;;;;14.23;9.83;;;;;;;;;;5073998;28;20534;-47
2021/09/20 05:11:01;;;;;;;13.20;9.50;;;;;;;;;;5073570;28;20392;-47
2021/09/20 05:13:27;;;;;;;11.20;9.07;;;;;;;;;;5073836;28;20483;-46
2021/09/20 05:15:53;;;;;;;10.70;9.47;;;;;;;;;;5073799;28;20417;-45
2021/09/20 05:18:19;;;;;;;11.57;8.73;;;;;;;;;;5073676;28;20792;-45
2021/09/20 05:20:45;;;;;;;12.73;8.70;;;;;;;;;;5074529;28;20409;-45
2021/09/20 05:23:11;;;;;;;10.30;8.70;;;;;;;;;;5073572;28;20464;-44
2021/09/20 05:25:37;;;;;;;11.37;8.27;;;;;;;;;;5073657;28;20479;-44
2021/09/20 05:28:03;;;;;;;9.07;8.13;;;;;;;;;;5073670;28;20546;-45
2021/09/20 05:30:29;;;;;;;9.60;8.00;;;;;;;;;;5073587;28;20393;-44
2021/09/20 05:32:55;;;;;;;10.63;9.63;;;;;;;;;;5073262;28;20791;-45
2021/09/20 05:35:21;;;;;;;9.67;8.70;;;;;;;;;;5073698;28;20425;-45
2021/09/20 05:37:48;;;;;;;10.87;9.50;;;;;;;;;;5073430;28;20421;-45
2021/09/20 05:40:15;;;;;;;11.80;9.07;;;;;;;;;;5073420;28;20436;-45
2021/09/20 05:42:42;;;;;;;10.30;8.00;;;;;;;;;;5073153;28;20401;-45
2021/09/20 05:45:09;;;;;;;10.60;8.97;;;;;;;;;;5073399;28;20398;-44
2021/09/20 05:47:35;;;;;;;9.73;8.50;;;;;;;;;;5073020;28;20459;-45
2021/09/20 05:50:01;;;;;;;9.53;8.53;;;;;;;;;;5073255;28;20406;-45
2021/09/20 05:52:27;;;;;;;11.77;8.70;;;;;;;;;;5072883;28;20408;-44
2021/09/20 05:54:53;;;;;;;11.67;9.40;;;;;;;;;;5073150;28;20401;-44
2021/09/20 05:57:19;;;;;;;10.23;9.00;;;;;;;;;;5072990;28;20417;-45
2021/09/20 05:59:45;;;;;;;13.53;9.63;;;;;;;;;;5073006;28;20412;-45
2021/09/20 06:02:11;;;;;;;11.90;9.50;;;;;;;;;;5073005;28;20888;-45
2021/09/20 06:04:37;;;;;;;11.27;9.63;;;;;;;;;;5072851;28;20450;-45
2021/09/20 06:07:03;;;;;;;11.53;8.97;;;;;;;;;;5072783;28;20779;-47
2021/09/20 06:09:29;;;;;;;12.63;9.90;;;;;;;;;;5072724;28;20476;-48
2021/09/20 06:11:55;;;;;;;9.77;8.80;;;;;;;;;;5072583;28;20489;-45
2021/09/20 06:14:21;;;;;;;9.87;8.87;;;;;;;;;;5072676;28;20410;-45
2021/09/20 06:16:47;;;;;;;13.63;10.80;;;;;;;;;;5072633;28;20444;-44
2021/09/20 06:19:13;;;;;;;12.90;9.90;;;;;;;;;;5072596;28;20472;-44
2021/09/20 06:21:39;;;;;;;10.10;8.57;;;;;;;;;;5072520;28;20497;-45
2021/09/20 06:24:05;;;;;;;13.00;9.20;;;;;;;;;;5071715;28;20400;-45
2021/09/20 06:26:31;;;;;;;10.90;9.20;;;;;;;;;;5072449;28;20425;-45
2021/09/20 06:28:57;;;;;;;10.07;8.97;;;;;;;;;;5072279;28;20456;-45
2021/09/20 06:31:23;;;;;;;13.03;10.57;;;;;;;;;;5072384;28;20982;-44
2021/09/20 06:33:49;;;;;;;9.60;8.70;;;;;;;;;;5072213;28;20747;-45
2021/09/20 06:36:15;;;;;;;11.30;9.20;;;;;;;;;;5072293;28;20421;-44
2021/09/20 06:38:41;;;;;;;10.47;8.90;;;;;;;;;;5072261;28;20413;-45
2021/09/20 06:41:07;;;;;;;11.30;8.80;;;;;;;;;;5072286;28;20507;-45
2021/09/20 06:43:33;;;;;;;10.20;9.10;;;;;;;;;;5071948;28;20471;-46
2021/09/20 06:45:59;;;;;;;10.47;8.53;;;;;;;;;;5072080;28;20431;-44
2021/09/20 06:48:25;;;;;;;9.33;8.27;;;;;;;;;;5072075;28;20457;-44
2021/09/20 06:50:51;;;;;;;10.53;8.60;;;;;;;;;;5072043;28;20424;-45
2021/09/20 06:53:17;;;;;;;12.23;8.90;;;;;;;;;;5071974;28;20912;-44
2021/09/20 06:55:43;;;;;;;11.60;8.30;;;;;;;;;;5071966;28;20765;-44
2021/09/20 06:58:09;;;;;;;12.37;8.90;;;;;;;;;;5071892;28;20492;-45
2021/09/20 07:00:36;;;;;;;8.57;7.63;;;;;;;;;;5072243;28;20399;-44
2021/09/20 07:03:02;;;;;;;9.30;8.27;;;;;;;;;;5071726;28;20401;-45
2021/09/20 07:05:28;;;;;;;11.67;8.60;;;;;;;;;;5071857;28;20414;-46
2021/09/20 07:07:54;;;;;;;9.70;7.60;;;;;;;;;;5072276;28;20546;-45
2021/09/20 07:10:20;;;;;;;8.70;7.30;;;;;;;;;;5072000;28;20400;-45
2021/09/20 07:12:46;;;;;;;8.00;7.20;;;;;;;;;;5071541;28;20407;-45
2021/09/20 07:15:14;;;;;;;7.47;6.30;;;;;;;;;;5071886;28;20375;-45
2021/09/20 07:17:40;;;;;;;6.47;5.87;;;;;;;;;;5071629;28;21109;-45
2021/09/20 07:20:06;;;;;;;7.90;6.30;;;;;;;;;;5071890;28;20402;-45
2021/09/20 07:22:32;;;;;;;5.60;5.10;;;;;;;;;;5071617;28;20448;-45
2021/09/20 07:24:58;;;;;;;6.67;5.93;;;;;;;;;;5071814;28;20876;-45
2021/09/20 07:27:24;;;;;;;6.00;5.50;;;;;;;;;;5070366;28;20446;-45
2021/09/20 07:29:50;;;;;;;9.60;6.67;;;;;;;;;;5071784;28;20400;-45
2021/09/20 07:32:16;;;;;;;6.50;5.90;;;;;;;;;;5071732;28;20738;-47
2021/09/20 07:34:43;;;;;;;5.90;5.40;;;;;;;;;;5073866;28;20825;-46
2021/09/20 07:37:09;;;;;;;6.63;6.03;;;;;;;;;;5075774;28;20474;-46
2021/09/20 07:39:36;;;;;;;8.40;5.80;;;;;;;;;;5075815;28;20483;-47
2021/09/20 07:42:02;;;;;;;6.47;5.67;;;;;;;;;;5075401;28;20399;-45
2021/09/20 07:44:28;;;;;;;7.40;6.37;;;;;;;;;;5075707;28;20766;-45
2021/09/20 07:46:54;;;;;;;6.10;5.50;;;;;;;;;;5075504;28;20434;-46
2021/09/20 07:49:19;;;;;;;5.23;4.83;;;;;;;;;;5075503;28;20484;-45
2021/09/20 07:51:46;;;;;;;5.37;4.97;;;;;;;;;;5075387;28;20400;-46
2021/09/20 07:54:11;;;;;;;6.40;5.90;;;;;;;;;;5066109;28;20417;-47
2021/09/20 07:56:37;;;;;;;6.80;6.20;;;;;;;;;;5071195;28;20970;-49
2021/09/20 07:59:03;;;;;;;6.27;5.63;;;;;;;;;;5067180;28;20940;-51
2021/09/20 08:01:30;;;;;;;7.97;5.77;;;;;;;;;;5074409;28;20852;-50
2021/09/20 08:03:56;;;;;;;5.37;4.97;;;;;;;;;;5074140;28;20409;-52
2021/09/20 08:06:22;;;;;;;5.67;5.17;;;;;;;;;;5068841;28;20436;-51
2021/09/20 08:08:48;;;;;;;5.37;4.97;;;;;;;;;;5055789;28;20456;-49
2021/09/20 08:11:14;;;;;;;6.00;5.50;;;;;;;;;;5055086;28;20397;-49
2021/09/20 08:13:41;;;;;;;7.90;4.90;;;;;;;;;;5055072;28;20906;-51
2021/09/20 08:16:07;;;;;;;6.10;5.60;;;;;;;;;;5054946;28;20547;-52
2021/09/20 08:18:33;;;;;;;5.67;5.17;;;;;;;;;;5055031;28;20429;-52
2021/09/20 08:20:59;;;;;;;4.87;4.50;;;;;;;;;;5054932;28;20428;-51
2021/09/20 08:23:26;;;;;;;5.60;4.87;;;;;;;;;;5054805;28;20453;-51
2021/09/20 08:25:53;;;;;;;7.10;5.70;;;;;;;;;;5054772;28;20431;-52
2021/09/20 08:28:19;;;;;;;5.70;5.20;;;;;;;;;;5054912;28;20460;-51
2021/09/20 08:30:45;;;;;;;5.20;4.70;;;;;;;;;;5054687;28;20462;-52
2021/09/20 08:33:11;;;;;;;5.60;5.10;;;;;;;;;;5074277;28;20824;-50
2021/09/20 08:35:37;;;;;;;5.07;4.53;;;;;;;;;;5074675;28;20426;-50
2021/09/20 08:38:03;;;;;;;7.17;5.27;;;;;;;;;;5074665;28;20417;-50
2021/09/20 08:40:29;;;;;;;6.00;5.13;;;;;;;;;;5074489;28;20404;-50
2021/09/20 08:42:56;;;;;;;5.40;4.97;;;;;;;;;;5074397;28;20404;-50
2021/09/20 08:45:23;;;;;;;5.33;4.80;;;;;;;;;;5073941;28;20437;-52
2021/09/20 08:47:50;;;;;;;5.90;5.40;;;;;;;;;;5074282;28;20461;-50
2021/09/20 08:50:17;;;;;;;5.30;4.70;;;;;;;;;;5074531;28;20769;-51
2021/09/20 08:52:43;;;;;;;5.60;5.10;;;;;;;;;;5074132;28;20405;-52
2021/09/20 08:55:09;;;;;;;8.30;4.90;;;;;;;;;;5074373;28;20438;-52
2021/09/20 08:57:35;;;;;;;12.60;6.00;;;;;;;;;;5074286;28;20431;-51
2021/09/20 09:00:04;;;;;;;7.20;4.57;;;;;;;;;;5074367;28;20397;-53
2021/09/20 09:02:31;;;;;;;5.77;5.27;;;;;;;;;;5074060;28;20480;-51
2021/09/20 09:05:11;;;;;;;5.60;5.10;;;;;;;;;;5074304;28;20945;-51
2021/09/20 09:07:41;;;;;;;5.10;4.60;;;;;;;;;;5073992;28;20416;-51
2021/09/20 09:10:07;;;;;;;6.30;5.03;;;;;;;;;;5074086;28;20401;-50
2021/09/20 09:12:35;;;;;;;5.07;4.57;;;;;;;;;;5073836;28;20411;-49
2021/09/20 09:15:03;;;;;;;4.87;4.47;;;;;;;;;;5073862;28;20415;-50
2021/09/20 09:17:30;;;;;;;5.60;5.10;;;;;;;;;;5073816;28;20442;-50
2021/09/20 09:20:03;;;;;;;9.70;5.20;;;;;;;;;;5073914;28;20455;-50
2021/09/20 09:22:41;;;;;;;6.20;5.67;;;;;;;;;;5073591;28;20751;-51
2021/09/20 09:25:09;;;;;;;5.70;4.77;;;;;;;;;;5073948;28;20402;-50
2021/09/20 09:27:38;;;;;;;5.53;5.03;;;;;;;;;;5073717;28;20453;-50
2021/09/20 09:30:15;;;;;;;5.70;4.70;;;;;;;;;;5073679;28;20804;-48
2021/09/20 09:32:42;;;;;;;5.00;4.50;;;;;;;;;;5073527;28;20489;-51
2021/09/20 09:35:09;;;;;;;6.37;5.30;;;;;;;;;;5073835;28;20958;-51
2021/09/20 09:37:36;;;;;;;5.23;4.90;;;;;;;;;;5073493;28;20522;-50
2021/09/20 09:40:20;;;;;;;7.23;5.70;;;;;;;;;;5073681;28;20424;-52
2021/09/20 09:42:46;;;;;;;5.00;4.60;;;;;;;;;;5073170;28;20435;-51
2021/09/20 09:45:21;;;;;;;5.83;5.33;;;;;;;;;;5073388;28;20394;-52
2021/09/20 09:47:48;;;;;;;4.77;4.47;;;;;;;;;;5073183;28;20488;-51
2021/09/20 09:50:26;;;;;;;5.10;4.70;;;;;;;;;;5073334;28;20397;-49
2021/09/20 09:52:53;;;;;;;5.27;4.77;;;;;;;;;;5072990;28;20788;-50
2021/09/20 09:55:20;;;;;;;5.20;4.70;;;;;;;;;;5073276;28;20404;-53
2021/09/20 09:57:49;;;;;;;5.10;4.60;;;;;;;;;;5071997;28;20461;-50
2021/09/20 10:00:15;;;;;;;6.83;4.70;;;;;;;;;;5073194;28;20411;-51
2021/09/20 10:02:46;;;;;;;5.30;4.77;;;;;;;;;;5072900;28;20400;-50
2021/09/20 10:05:13;;;;;;;5.50;5.10;;;;;;;;;;5073065;28;20416;-52
2021/09/20 10:07:43;;;;;;;6.93;5.37;;;;;;;;;;5072760;28;20442;-52
2021/09/20 10:10:19;;;;;;;7.30;4.80;;;;;;;;;;5072912;28;20423;-52
2021/09/20 10:12:47;;;;;;;5.90;4.97;;;;;;;;;;5072527;28;20810;-51
2021/09/20 10:15:14;;;;;;;5.57;5.07;;;;;;;;;;5072900;28;20395;-52
2021/09/20 10:17:40;;;;;;;5.37;4.87;;;;;;;;;;5072641;28;20499;-52
2021/09/20 10:20:08;;;;;;;5.40;5.00;;;;;;;;;;5072758;28;20415;-52
2021/09/20 10:22:34;;;;;;;8.97;5.33;;;;;;;;;;5072456;28;20769;-49
2021/09/20 10:25:01;;;;;;;4.57;4.27;;;;;;;;;;5072665;28;20423;-53
2021/09/20 10:27:28;;;;;;;5.20;4.80;;;;;;;;;;5072370;28;20510;-52
2021/09/20 10:29:56;;;;;;;5.30;4.70;;;;;;;;;;5072802;28;20819;-52
2021/09/20 10:32:25;;;;;;;5.43;4.27;;;;;;;;;;5072317;28;20401;-52
2021/09/20 10:34:51;;;;;;;7.23;4.43;;;;;;;;;;5072348;28;20435;-52
2021/09/20 10:37:23;;;;;;;4.53;4.13;;;;;;;;;;5072336;28;20452;-52
2021/09/20 10:39:57;;;;;;;9.07;4.97;;;;;;;;;;5072351;28;20416;-51
2021/09/20 10:42:46;;;;;;;5.43;5.03;;;;;;;;;;5072088;28;20404;-52
2021/09/20 10:45:31;;;;;;;4.80;4.40;;;;;;;;;;5072281;28;20892;-51
2021/09/20 10:48:02;;;;;;;5.10;4.70;;;;;;;;;;5072405;28;20486;-52
2021/09/20 10:50:43;;;;;;;5.33;4.93;;;;;;;;;;5072308;28;20392;-49
2021/09/20 10:53:16;;;;;;;5.23;4.90;;;;;;;;;;5072026;28;20399;-52
2021/09/20 10:56:00;;;;;;;7.70;5.17;;;;;;;;;;5072078;28;20412;-51
2021/09/20 10:58:26;;;;;;;6.60;6.00;;;;;;;;;;5064676;28;20442;-49
2021/09/20 11:01:14;;;;;;;6.37;5.87;;;;;;;;;;5071441;28;20412;-49
2021/09/20 11:03:44;;;;;;;5.83;5.23;;;;;;;;;;5071720;28;20469;-49
2021/09/20 11:06:20;;;;;;;6.30;5.80;;;;;;;;;;5071963;28;20425;-50
2021/09/20 11:08:46;;;;;;;6.33;5.70;;;;;;;;;;5071598;28;20486;-51
2021/09/20 11:11:31;;;;;;;7.83;5.57;;;;;;;;;;5071954;28;20491;-51
2021/09/20 11:14:01;;;;;;;5.93;5.10;;;;;;;;;;5071793;28;20485;-52
2021/09/20 11:16:46;;;;;;;6.27;5.67;;;;;;;;;;5071775;28;20431;-53
2021/09/20 11:19:27;;;;;;;5.93;5.43;;;;;;;;;;5072621;28;20401;-50
2021/09/20 11:22:06;;;;;;;5.63;4.90;;;;;;;;;;5071878;28;20455;-49
2021/09/20 11:24:32;;;;;;;5.57;5.10;;;;;;;;;;5071694;28;20767;-51
2021/09/20 11:26:58;;;;;;;5.77;5.27;;;;;;;;;;5071661;28;20974;-49
2021/09/20 11:29:25;;;;;;;5.83;5.20;;;;;;;;;;5071656;28;20547;-51
2021/09/20 11:31:53;;;;;;;6.50;5.90;;;;;;;;;;5071831;28;20776;-51
2021/09/20 11:34:33;;;;;;;5.20;4.80;;;;;;;;;;5071510;28;20437;-51
2021/09/20 11:37:28;;;;;;;5.60;5.20;;;;;;;;;;5071538;28;20424;-50
2021/09/20 11:40:00;;;;;;;8.43;5.20;;;;;;;;;;5066855;28;20412;-52
2021/09/20 11:42:28;;;;;;;6.20;4.70;;;;;;;;;;5071623;28;20410;-53
2021/09/20 11:44:56;;;;;;;5.80;5.30;;;;;;;;;;5071611;28;20415;-51
2021/09/20 11:47:23;;;;;;;5.40;4.80;;;;;;;;;;5071553;28;20450;-50
2021/09/20 11:49:52;;;;;;;5.60;5.10;;;;;;;;;;5071339;28;21006;-51
2021/09/20 11:52:32;;;;;;;6.07;5.20;;;;;;;;;;5071436;28;20435;-49
2021/09/20 11:54:58;;;;;;;6.27;5.40;;;;;;;;;;5071424;28;20404;-50
2021/09/20 11:57:25;;;;;;;5.53;5.03;;;;;;;;;;5071366;28;20485;-49
2021/09/20 11:59:52;;;;;;;7.20;5.30;;;;;;;;;;5071446;28;20492;-52
2021/09/20 12:02:28;;;;;;;5.40;4.50;;;;;;;;;;5071391;28;20837;-51
2021/09/20 12:04:54;;;;;;;5.47;4.90;;;;;;;;;;5071380;28;20412;-51
2021/09/20 12:07:31;;;;;;;5.70;5.20;;;;;;;;;;5071400;28;20420;-51
2021/09/20 12:09:57;;;;;;;5.60;5.20;;;;;;;;;;5071314;28;20487;-51
2021/09/20 12:12:30;;;;;;;5.93;5.43;;;;;;;;;;5071114;28;20403;-50
2021/09/20 12:14:58;;;;;;;5.33;4.83;;;;;;;;;;5071257;28;20387;-49
2021/09/20 12:17:24;;;;;;;5.70;5.20;;;;;;;;;;5071122;28;20526;-49
2021/09/20 12:19:54;;;;;;;5.10;4.63;;;;;;;;;;5071209;28;20483;-51
2021/09/20 12:22:20;;;;;;;5.60;5.13;;;;;;;;;;5074109;28;20404;-51
2021/09/20 12:24:47;;;;;;;5.03;4.60;;;;;;;;;;5074722;28;20411;-52
2021/09/20 12:27:13;;;;;;;6.13;5.53;;;;;;;;;;5074702;28;20419;-51
2021/09/20 12:29:39;;;;;;;8.53;5.07;;;;;;;;;;5074648;28;20448;-51
2021/09/20 12:32:05;;;;;;;4.80;4.50;;;;;;;;;;5074743;28;20404;-51
2021/09/20 12:34:35;;;;;;;5.10;4.70;;;;;;;;;;5074528;28;20769;-52
2021/09/20 12:37:03;;;;;;;6.00;5.27;;;;;;;;;;5074599;28;20505;-52
2021/09/20 12:39:32;;;;;;;6.77;5.30;;;;;;;;;;5074578;28;20911;-50
2021/09/20 12:42:02;;;;;;;9.53;5.07;;;;;;;;;;5074464;28;20428;-52
2021/09/20 12:44:30;;;;;;;10.40;4.97;;;;;;;;;;5074383;28;20403;-51
2021/09/20 12:47:03;;;;;;;6.13;5.40;;;;;;;;;;5074488;28;20427;-50
2021/09/20 12:49:29;;;;;;;5.20;4.70;;;;;;;;;;5074409;28;20455;-51
2021/09/20 12:51:56;;;;;;;4.40;3.60;;;;;;;;;;5074403;28;20491;-49
2021/09/20 12:54:26;;;;;;;4.27;3.87;;;;;;;;;;5074050;28;20400;-50
2021/09/20 12:56:55;;;;;;;5.07;4.00;;;;;;;;;;5074243;28;20469;-51
2021/09/20 12:59:22;;;;;;;4.47;4.17;;;;;;;;;;5074299;28;20439;-51
2021/09/20 13:01:53;;;;;;;5.27;4.03;;;;;;;;;;5074150;28;20454;-49
2021/09/20 13:04:38;;;;;;;5.10;4.70;;;;;;;;;;5074084;28;20810;-51
2021/09/20 13:07:06;;;;;;;5.17;4.67;;;;;;;;;;5073964;28;20435;-51
2021/09/20 13:09:33;;;;;;;5.00;4.57;;;;;;;;;;5074056;28;20448;-50
2021/09/20 13:12:04;;;;;;;4.77;4.47;;;;;;;;;;5074010;28;20400;-52
2021/09/20 13:14:32;;;;;;;5.10;4.60;;;;;;;;;;5073907;28;20488;-51
2021/09/20 13:17:04;;;;;;;6.00;5.50;;;;;;;;;;5073840;28;20935;-52
2021/09/20 13:19:31;;;;;;;8.17;4.90;;;;;;;;;;5073934;28;20408;-52
2021/09/20 13:22:01;;;;;;;5.23;4.73;;;;;;;;;;5073839;28;20404;-51
2021/09/20 13:24:35;;;;;;;4.93;4.53;;;;;;;;;;5073683;28;20431;-49
2021/09/20 13:27:01;;;;;;;5.07;4.73;;;;;;;;;;5073825;28;20483;-52
2021/09/20 13:29:27;;;;;;;5.43;4.80;;;;;;;;;;5073701;28;20458;-51
2021/09/20 13:31:53;;;;;;;4.50;4.10;;;;;;;;;;5073381;28;20763;-52
2021/09/20 13:34:19;;;;;;;4.83;4.37;;;;;;;;;;5073520;28;20401;-51
2021/09/20 13:36:45;;;;;;;6.00;5.37;;;;;;;;;;5073618;28;20428;-52
2021/09/20 13:39:11;;;;;;;5.13;4.63;;;;;;;;;;5073495;28;20514;-51
2021/09/20 13:41:39;;;;;;;5.43;4.47;;;;;;;;;;5073487;28;20435;-52
2021/09/20 13:44:05;;;;;;;5.20;4.53;;;;;;;;;;5073398;28;20404;-51
2021/09/20 13:46:31;;;;;;;5.20;4.50;;;;;;;;;;5073214;28;20982;-51
2021/09/20 13:48:57;;;;;;;5.50;4.43;;;;;;;;;;5073295;28;20538;-49
2021/09/20 13:51:24;;;;;;;5.43;5.03;;;;;;;;;;5073239;28;20566;-51
2021/09/20 13:53:51;;;;;;;4.50;4.10;;;;;;;;;;5073049;28;20393;-51
2021/09/20 13:56:17;;;;;;;5.00;4.60;;;;;;;;;;5073216;28;20438;-51
2021/09/20 13:58:43;;;;;;;4.90;4.50;;;;;;;;;;5073257;28;20541;-51
2021/09/20 14:01:09;;;;;;;4.43;4.03;;;;;;;;;;5072944;28;20493;-51
2021/09/20 14:03:35;;;;;;;5.27;4.87;;;;;;;;;;5072899;28;20491;-52
2021/09/20 14:06:01;;;;;;;4.60;4.30;;;;;;;;;;5073028;28;20478;-51
2021/09/20 14:08:28;;;;;;;5.23;4.73;;;;;;;;;;5072983;28;20869;-51
2021/09/20 14:10:54;;;;;;;4.90;4.50;;;;;;;;;;5072767;28;20401;-50
2021/09/20 14:13:24;;;;;;;5.10;4.70;;;;;;;;;;5072774;28;20429;-51
2021/09/20 14:15:50;;;;;;;6.07;4.70;;;;;;;;;;5072805;28;20428;-51
2021/09/20 14:18:16;;;;;;;4.50;4.20;;;;;;;;;;5072677;28;20447;-51
2021/09/20 14:20:43;;;;;;;4.50;4.10;;;;;;;;;;5072790;28;20435;-51
2021/09/20 14:23:09;;;;;;;7.80;4.23;;;;;;;;;;5072414;28;20408;-51
2021/09/20 14:25:36;;;;;;;4.40;4.00;;;;;;;;;;5072628;28;20415;-50
2021/09/20 14:28:03;;;;;;;4.37;3.87;;;;;;;;;;5072530;28;20453;-48
2021/09/20 14:30:29;;;;;;;4.70;4.33;;;;;;;;;;5072532;28;20400;-51
2021/09/20 14:32:55;;;;;;;6.17;4.00;;;;;;;;;;5072273;28;20460;-51
2021/09/20 14:35:21;;;;;;;4.50;4.17;;;;;;;;;;5072635;28;20411;-51
2021/09/20 14:37:48;;;;;;;4.53;4.13;;;;;;;;;;5072340;28;20425;-51
2021/09/20 14:40:15;;;;;;;4.30;3.90;;;;;;;;;;5072425;28;20745;-52